map of BBA home
BBA - Airport
Location
City:  Balmaceda, Aysén del General Carlos Ibáñez del Campo, Chile
ICAO:SCBA
IATA:BBA

Details
Type:Airport (Aerodrome, Airfield)
Use:Public/Civil
Latitude:45°54'58"S (-45.916057)
Longitude:71°41'22"W (-71.689474)
Datum:WGS 1984
Elevation:1722 ft (525 m)
Variation:9.79°E (WMM2015 magnetic declination)
-0.10° annual change
Runways:1
Longest:8205 × 148 ft (2501 × 45 m), paved

Time
Time Zone:UTC-4 (DST-3)
Local Time:

Weather
METAR:SCBA 170200Z AUTO 31015KT CAVOK 06/01 Q1009
TAF:SCBA 162228Z 1700/1800 31020KT 9999 BKN045 TN05/1710Z TX13/1719Z
BECMG 1701/1703 31012KT
BECMG 1712/1714 31020KT SCT045
TEMPO 1716/1722 31028KT BKN050

Related Locations
Nearby:
Farthest:MXW: 12341 mi / 19860 km
Mandalgovi (Mandalgobi) [Mandalgovi Airport], 059, MN

Find:

   beyond  
but within

Other Information
Maps:
NOTAMs:
Links:
Sources:

  
  • flag of Chile
  • flag of Aysén del General Carlos Ibáñez del Campo
  

Sectional Chart

Flight Planning
at skyvector.com

Satellite Image

Google Maps Satellite view

 

Copyright © 2004-2018 Karl L. Swartz. All rights reserved.
The Great Circle Mapper name and logo are trademarks of the Great Circle Mapper.
All other trademarks mentioned herein belong to their respective owners.
Please see credits for attibutions and further copyright information.

  Follow gcmap on Facebook Follow gcmap on Twitter Follow gcmap on Google+ GCmap on LinkedIn

hCard Microformat

Geo Microformat